Dirección General De Aeronáutica Civil

Dirección Meteorológica de Chile - Servicios Climáticos

Informe General de Control de Calidad de la Estación

Listado de niveles de control de calidad para algunos parámetros
Estación Toconao (230004)
Fecha de Revisión de los datos :

Elementos

Registros Niveles de Control Total
Nivel 0 Nivel 1 Nivel 2 Nivel 3 Errores Porcentaje
01 Temperatura del Aire Seco 83.812 0 . 0 . 0 . 0 . 0 0.00 %
02 Temperatura de Rocío 83.869 0 . 0 . 0 . 0 . 0 0.00 %
03 Humedad Relativa del Aire 84.046 0 . 0 . 0 . 0 . 0 0.00 %
04 Temperatura Máxima PM 3.504 0 . 0 . 18 0.51 % 0 . 18 0.51 %
05 Temperatura Mínima AM 3.475 0 . 0 . 15 0.43 % 0 . 15 0.43 %
06 Viento a 10 m. de Altura 84.135 0 . 0 . 1 0.00 % 0 . 1 0.00 %
07 Agua Caida, Acumulada 6 Horas 14.016 0 . 0 . 0 . 0 . 0 0.00 %
08 Presión Atm. a Nivel de Estación (QFE) 83.906 0 . 0 . 0 . 0 . 0 0.00 %
09 Presión Atm. a Nivel Medio del Mar (QFF) 84.055 0 . 0 . 0 . 0 . 0 0.00 %
10 Presión Atm. Estándar OACI (QNH) 84.056 0 . 0 . 0 . 0 . 0 0.00 %

Totales

608.874 . 0.0000 % . 0.0000 % . 0.0056 % . 0.0000 % 34 0.0056 %

Detalle de Errores Encontrados

Nivel Fecha del Dato Descripción Información Error Fecha Ingreso
2 2014-05-23 18:00:00 Variación horaria de Intensidad del viento fuera de rango (1 hora Antes) 34 - 3 2014-05-23 18:17:00
2 2019-04-05 00:00:00 Temperatura 21.5 del 04-04-2019 19:00, Mayor que la Máxima 19.3 05-04-2019 00:00 21.5 -- 19.3 2019-04-05 00:15:00
2 2020-01-18 00:00:00 Temperatura 33.1 del 17-01-2020 18:00, Mayor que la Máxima 30.7 18-01-2020 00:00 33.1 -- 30.7 2020-01-18 00:20:00
2 2023-08-27 00:00:00 Temperatura 23.4 del 26-08-2023 19:00, Mayor que la Máxima 17.4 27-08-2023 00:00 23.4 -- 17.4 2023-08-27 00:35:00
2 2023-08-29 00:00:00 Temperatura 23.6 del 28-08-2023 18:00, Mayor que la Máxima 17.8 29-08-2023 00:00 23.6 -- 17.8 2023-08-29 00:35:00
2 2023-08-30 00:00:00 Temperatura 24.2 del 29-08-2023 19:00, Mayor que la Máxima 18.4 30-08-2023 00:00 24.2 -- 18.4 2023-08-30 00:35:00
2 2023-08-31 00:00:00 Temperatura 24.1 del 30-08-2023 19:00, Mayor que la Máxima 18.3 31-08-2023 00:00 24.1 -- 18.3 2023-08-31 00:50:00
2 2023-09-01 00:00:00 Temperatura 24.8 del 31-08-2023 19:00, Mayor que la Máxima 18.3 01-09-2023 00:00 24.8 -- 18.3 2023-09-01 00:50:00
2 2023-09-02 00:00:00 Temperatura 23.1 del 01-09-2023 20:00, Mayor que la Máxima 16.1 02-09-2023 00:00 23.1 -- 16.1 2023-09-02 02:20:00
2 2023-09-03 00:00:00 Temperatura 22.7 del 02-09-2023 19:00, Mayor que la Máxima 14.7 03-09-2023 00:00 22.7 -- 14.7 2023-09-03 00:50:00
2 2023-09-04 00:00:00 Temperatura 23.0 del 03-09-2023 17:00, Mayor que la Máxima 13.2 04-09-2023 00:00 23.0 -- 13.2 2023-09-04 01:35:00
2 2023-09-05 00:00:00 Temperatura 20.6 del 04-09-2023 21:00, Mayor que la Máxima 14.8 05-09-2023 00:00 20.6 -- 14.8 2023-09-05 00:35:00
2 2023-09-06 00:00:00 Temperatura 26.0 del 05-09-2023 19:00, Mayor que la Máxima 18.6 06-09-2023 00:00 26.0 -- 18.6 2023-09-06 01:08:00
2 2023-09-07 00:00:00 Temperatura 24.8 del 06-09-2023 18:00, Mayor que la Máxima 17.8 07-09-2023 00:00 24.8 -- 17.8 2023-09-07 00:20:00
2 2023-09-08 00:00:00 Temperatura 23.0 del 07-09-2023 20:00, Mayor que la Máxima 9.3 08-09-2023 00:00 23.0 -- 9.3 2023-09-08 00:35:00
2 2023-09-09 00:00:00 Temperatura 23.2 del 08-09-2023 19:00, Mayor que la Máxima 17.2 09-09-2023 00:00 23.2 -- 17.2 2023-09-09 00:35:00
2 2023-09-10 00:00:00 Temperatura 23.5 del 09-09-2023 21:00, Mayor que la Máxima 17.4 10-09-2023 00:00 23.5 -- 17.4 2023-09-10 01:08:00
2 2023-09-11 00:00:00 Temperatura 26.2 del 10-09-2023 20:00, Mayor que la Máxima 20.6 11-09-2023 00:00 26.2 -- 20.6 2023-09-11 00:50:00
2 2023-10-04 00:00:00 Temperatura 26.7 del 03-10-2023 19:00, Mayor que la Máxima 19.6 04-10-2023 00:00 26.7 -- 19.6 2023-10-04 00:20:00
2 2023-08-29 12:00:00 Temperatura 6.2 del 29-08-2023 11:00, Menor que la Mínima 6.5 29-08-2023 12:00 6.2 -- 6.5 2023-08-29 12:35:00
2 2023-08-30 12:00:00 Temperatura 8.9 del 30-08-2023 09:00, Menor que la Mínima 9.7 30-08-2023 12:00 8.9 -- 9.7 2023-08-30 12:20:00
2 2023-08-31 12:00:00 Temperatura 6.5 del 31-08-2023 09:00, Menor que la Mínima 9.6 31-08-2023 12:00 6.5 -- 9.6 2023-08-31 13:08:00
2 2023-09-01 12:00:00 Temperatura 8.3 del 01-09-2023 10:00, Menor que la Mínima 9.3 01-09-2023 12:00 8.3 -- 9.3 2023-09-01 12:35:00
2 2023-09-02 12:00:00 Temperatura 5.0 del 02-09-2023 09:00, Menor que la Mínima 6.9 02-09-2023 12:00 5.0 -- 6.9 2023-09-02 13:08:00
2 2023-09-03 12:00:00 Temperatura 3.4 del 03-09-2023 11:00, Menor que la Mínima 8.1 03-09-2023 12:00 3.4 -- 8.1 2023-09-03 12:20:00
2 2023-09-04 12:00:00 Temperatura 2.0 del 04-09-2023 11:00, Menor que la Mínima 2.9 04-09-2023 12:00 2.0 -- 2.9 2023-09-04 12:50:00
2 2023-09-05 12:00:00 Temperatura 4.6 del 05-09-2023 11:00, Menor que la Mínima 6.7 05-09-2023 12:00 4.6 -- 6.7 2023-09-05 12:35:00
2 2023-09-06 12:00:00 Temperatura 8.2 del 06-09-2023 11:00, Menor que la Mínima 8.4 06-09-2023 12:00 8.2 -- 8.4 2023-09-06 12:20:00
2 2023-09-07 12:00:00 Temperatura 6.1 del 07-09-2023 10:00, Menor que la Mínima 6.7 07-09-2023 12:00 6.1 -- 6.7 2023-09-07 12:35:00
2 2023-09-08 12:00:00 Temperatura 7.1 del 08-09-2023 09:00, Menor que la Mínima 8.9 08-09-2023 12:00 7.1 -- 8.9 2023-09-08 12:50:00
2 2023-09-09 12:00:00 Temperatura 5.5 del 09-09-2023 10:00, Menor que la Mínima 8.5 09-09-2023 12:00 5.5 -- 8.5 2023-09-09 12:35:00
2 2023-09-10 12:00:00 Temperatura 8.4 del 10-09-2023 10:00, Menor que la Mínima 9.1 10-09-2023 12:00 8.4 -- 9.1 2023-09-10 12:35:00
2 2023-09-11 12:00:00 Temperatura 9.0 del 11-09-2023 11:00, Menor que la Mínima 10.3 11-09-2023 12:00 9.0 -- 10.3 2023-09-11 12:50:00
2 2023-09-20 12:00:00 Temperatura 10.8 del 20-09-2023 11:00, Menor que la Mínima 13.1 20-09-2023 12:00 10.8 -- 13.1 2023-09-20 12:20:00
Errores del Nivel 34
Informe generado el 17-07-2024 13:16
Requerimiento: RE6001